sensor_id;sensor_type;location;lat;lon;timestamp;temperature;humidity
37285;DHT22;23172;53.550;9.964;2023-12-22T00:00:52;8.00;78.20
37285;DHT22;23172;53.550;9.964;2023-12-22T00:05:54;8.00;78.30
37285;DHT22;23172;53.550;9.964;2023-12-22T00:10:57;7.90;78.10
37285;DHT22;23172;53.550;9.964;2023-12-22T00:15:59;7.90;78.10
37285;DHT22;23172;53.550;9.964;2023-12-22T00:21:02;7.90;78.00
37285;DHT22;23172;53.550;9.964;2023-12-22T00:26:05;7.90;77.10
37285;DHT22;23172;53.550;9.964;2023-12-22T00:31:07;7.80;77.00
37285;DHT22;23172;53.550;9.964;2023-12-22T00:36:09;7.80;80.00
37285;DHT22;23172;53.550;9.964;2023-12-22T00:41:12;7.70;82.30
37285;DHT22;23172;53.550;9.964;2023-12-22T00:46:14;7.70;84.20
37285;DHT22;23172;53.550;9.964;2023-12-22T00:51:16;7.80;85.40
37285;DHT22;23172;53.550;9.964;2023-12-22T00:56:19;7.80;86.30
37285;DHT22;23172;53.550;9.964;2023-12-22T01:01:21;7.70;87.60
37285;DHT22;23172;53.550;9.964;2023-12-22T01:06:22;7.70;88.80
37285;DHT22;23172;53.550;9.964;2023-12-22T01:11:26;7.60;89.60
37285;DHT22;23172;53.550;9.964;2023-12-22T01:16:27;7.50;90.00
37285;DHT22;23172;53.550;9.964;2023-12-22T01:21:29;7.40;90.30
37285;DHT22;23172;53.550;9.964;2023-12-22T01:26:32;7.30;90.80
37285;DHT22;23172;53.550;9.964;2023-12-22T01:31:34;7.30;91.70
37285;DHT22;23172;53.550;9.964;2023-12-22T01:36:36;7.10;93.40
37285;DHT22;23172;53.550;9.964;2023-12-22T01:41:39;6.70;94.70
37285;DHT22;23172;53.550;9.964;2023-12-22T01:46:41;6.40;96.70
37285;DHT22;23172;53.550;9.964;2023-12-22T01:51:43;6.10;97.70
37285;DHT22;23172;53.550;9.964;2023-12-22T01:56:47;5.90;98.80
37285;DHT22;23172;53.550;9.964;2023-12-22T02:01:49;5.80;99.40
37285;DHT22;23172;53.550;9.964;2023-12-22T02:06:51;5.70;99.90
37285;DHT22;23172;53.550;9.964;2023-12-22T02:11:55;5.70;99.90
37285;DHT22;23172;53.550;9.964;2023-12-22T02:17:04;5.70;99.90
37285;DHT22;23172;53.550;9.964;2023-12-22T02:22:08;5.80;99.90
37285;DHT22;23172;53.550;9.964;2023-12-22T02:27:17;5.70;99.90
37285;DHT22;23172;53.550;9.964;2023-12-22T02:32:27;5.80;99.90
37285;DHT22;23172;53.550;9.964;2023-12-22T02:37:29;5.80;99.90
37285;DHT22;23172;53.550;9.964;2023-12-22T02:42:34;5.80;99.90
37285;DHT22;23172;53.550;9.964;2023-12-22T02:47:37;5.90;99.90
37285;DHT22;23172;53.550;9.964;2023-12-22T02:52:39;5.90;99.90
37285;DHT22;23172;53.550;9.964;2023-12-22T02:57:42;6.00;99.90
37285;DHT22;23172;53.550;9.964;2023-12-22T03:02:44;6.00;99.90
37285;DHT22;23172;53.550;9.964;2023-12-22T03:07:45;5.90;99.90
37285;DHT22;23172;53.550;9.964;2023-12-22T03:12:49;5.70;99.90
37285;DHT22;23172;53.550;9.964;2023-12-22T03:17:50;5.50;99.90
37285;DHT22;23172;53.550;9.964;2023-12-22T03:22:52;5.40;99.90
37285;DHT22;23172;53.550;9.964;2023-12-22T03:27:55;5.40;99.90
37285;DHT22;23172;53.550;9.964;2023-12-22T03:32:57;5.40;99.90
37285;DHT22;23172;53.550;9.964;2023-12-22T03:37:59;5.40;99.90
37285;DHT22;23172;53.550;9.964;2023-12-22T03:43:02;5.40;99.90
37285;DHT22;23172;53.550;9.964;2023-12-22T03:48:05;5.40;99.90
37285;DHT22;23172;53.550;9.964;2023-12-22T03:53:07;5.40;99.90
37285;DHT22;23172;53.550;9.964;2023-12-22T03:58:11;5.40;99.90
37285;DHT22;23172;53.550;9.964;2023-12-22T04:03:12;5.50;99.90
37285;DHT22;23172;53.550;9.964;2023-12-22T04:08:14;5.60;99.90
37285;DHT22;23172;53.550;9.964;2023-12-22T04:13:17;5.60;99.90
37285;DHT22;23172;53.550;9.964;2023-12-22T04:18:19;5.60;99.90
37285;DHT22;23172;53.550;9.964;2023-12-22T04:23:21;5.80;99.90
37285;DHT22;23172;53.550;9.964;2023-12-22T04:28:24;5.80;99.90
37285;DHT22;23172;53.550;9.964;2023-12-22T04:33:26;5.90;99.90
37285;DHT22;23172;53.550;9.964;2023-12-22T04:38:28;5.90;99.90
37285;DHT22;23172;53.550;9.964;2023-12-22T04:43:31;5.90;99.90
37285;DHT22;23172;53.550;9.964;2023-12-22T04:48:33;6.00;99.90
37285;DHT22;23172;53.550;9.964;2023-12-22T04:53:35;6.00;99.90
37285;DHT22;23172;53.550;9.964;2023-12-22T04:58:38;6.00;99.90
37285;DHT22;23172;53.550;9.964;2023-12-22T05:03:40;6.00;99.90
37285;DHT22;23172;53.550;9.964;2023-12-22T05:08:42;6.10;99.90
37285;DHT22;23172;53.550;9.964;2023-12-22T05:13:45;6.10;99.90
37285;DHT22;23172;53.550;9.964;2023-12-22T05:18:47;6.30;99.90
37285;DHT22;23172;53.550;9.964;2023-12-22T05:23:49;6.30;99.90
37285;DHT22;23172;53.550;9.964;2023-12-22T05:28:52;6.20;99.70
37285;DHT22;23172;53.550;9.964;2023-12-22T05:33:54;6.00;99.90
37285;DHT22;23172;53.550;9.964;2023-12-22T05:38:56;5.90;99.90
37285;DHT22;23172;53.550;9.964;2023-12-22T05:43:59;5.80;99.90
37285;DHT22;23172;53.550;9.964;2023-12-22T05:49:01;5.70;99.90
37285;DHT22;23172;53.550;9.964;2023-12-22T05:54:04;5.50;99.90
37285;DHT22;23172;53.550;9.964;2023-12-22T05:59:07;5.30;99.90
37285;DHT22;23172;53.550;9.964;2023-12-22T06:04:09;5.20;99.90
37285;DHT22;23172;53.550;9.964;2023-12-22T06:09:11;5.00;99.90
37285;DHT22;23172;53.550;9.964;2023-12-22T06:14:14;5.00;99.90
37285;DHT22;23172;53.550;9.964;2023-12-22T06:19:16;5.00;99.90
37285;DHT22;23172;53.550;9.964;2023-12-22T06:24:18;5.00;99.90
37285;DHT22;23172;53.550;9.964;2023-12-22T06:29:21;5.10;99.90
37285;DHT22;23172;53.550;9.964;2023-12-22T06:34:23;5.10;99.90
37285;DHT22;23172;53.550;9.964;2023-12-22T06:39:29;5.20;99.90
37285;DHT22;23172;53.550;9.964;2023-12-22T06:44:33;5.30;99.70
37285;DHT22;23172;53.550;9.964;2023-12-22T06:49:35;5.50;99.20
37285;DHT22;23172;53.550;9.964;2023-12-22T06:54:36;5.60;98.30
37285;DHT22;23172;53.550;9.964;2023-12-22T06:59:40;5.60;97.80
37285;DHT22;23172;53.550;9.964;2023-12-22T07:04:42;5.70;97.90
37285;DHT22;23172;53.550;9.964;2023-12-22T07:09:57;5.70;97.30
37285;DHT22;23172;53.550;9.964;2023-12-22T07:15:00;5.70;97.50
37285;DHT22;23172;53.550;9.964;2023-12-22T07:20:03;5.80;97.80
37285;DHT22;23172;53.550;9.964;2023-12-22T07:25:06;5.70;97.80
37285;DHT22;23172;53.550;9.964;2023-12-22T07:30:11;5.70;97.40
37285;DHT22;23172;53.550;9.964;2023-12-22T07:35:16;5.80;96.80
37285;DHT22;23172;53.550;9.964;2023-12-22T07:40:18;5.90;96.60
37285;DHT22;23172;53.550;9.964;2023-12-22T07:45:22;5.90;96.70
37285;DHT22;23172;53.550;9.964;2023-12-22T07:50:23;5.80;99.00
37285;DHT22;23172;53.550;9.964;2023-12-22T07:55:25;5.60;99.90
37285;DHT22;23172;53.550;9.964;2023-12-22T08:00:28;5.40;99.90
37285;DHT22;23172;53.550;9.964;2023-12-22T08:05:30;5.40;99.90
37285;DHT22;23172;53.550;9.964;2023-12-22T08:10:33;5.40;99.90
37285;DHT22;23172;53.550;9.964;2023-12-22T08:15:37;5.50;99.90
37285;DHT22;23172;53.550;9.964;2023-12-22T08:20:38;5.50;99.90
37285;DHT22;23172;53.550;9.964;2023-12-22T08:25:40;5.50;99.90
37285;DHT22;23172;53.550;9.964;2023-12-22T08:30:43;5.20;99.90
37285;DHT22;23172;53.550;9.964;2023-12-22T08:35:45;5.00;99.90
37285;DHT22;23172;53.550;9.964;2023-12-22T08:40:47;4.90;99.90
37285;DHT22;23172;53.550;9.964;2023-12-22T08:45:50;5.00;99.90
37285;DHT22;23172;53.550;9.964;2023-12-22T08:50:52;5.20;99.90
37285;DHT22;23172;53.550;9.964;2023-12-22T08:55:54;5.40;99.90
37285;DHT22;23172;53.550;9.964;2023-12-22T09:00:58;5.50;99.90
37285;DHT22;23172;53.550;9.964;2023-12-22T09:06:00;5.70;99.90
37285;DHT22;23172;53.550;9.964;2023-12-22T09:11:02;5.70;99.10
37285;DHT22;23172;53.550;9.964;2023-12-22T09:16:06;5.70;98.30
37285;DHT22;23172;53.550;9.964;2023-12-22T09:21:07;5.80;97.40
37285;DHT22;23172;53.550;9.964;2023-12-22T09:26:09;5.90;95.50
37285;DHT22;23172;53.550;9.964;2023-12-22T09:31:13;6.00;94.40
37285;DHT22;23172;53.550;9.964;2023-12-22T09:36:15;6.10;93.30
37285;DHT22;23172;53.550;9.964;2023-12-22T09:41:16;6.10;92.20
37285;DHT22;23172;53.550;9.964;2023-12-22T09:46:21;6.20;91.70
37285;DHT22;23172;53.550;9.964;2023-12-22T09:51:23;6.20;91.00
37285;DHT22;23172;53.550;9.964;2023-12-22T09:56:26;6.30;90.70
37285;DHT22;23172;53.550;9.964;2023-12-22T10:01:29;6.40;90.70
37285;DHT22;23172;53.550;9.964;2023-12-22T10:06:32;6.50;90.70
37285;DHT22;23172;53.550;9.964;2023-12-22T10:11:35;6.60;90.60
37285;DHT22;23172;53.550;9.964;2023-12-22T10:16:39;6.80;90.30
37285;DHT22;23172;53.550;9.964;2023-12-22T10:21:41;6.90;89.80
37285;DHT22;23172;53.550;9.964;2023-12-22T10:26:44;7.00;89.80
37285;DHT22;23172;53.550;9.964;2023-12-22T10:31:49;7.00;89.80
37285;DHT22;23172;53.550;9.964;2023-12-22T10:36:51;7.00;90.30
37285;DHT22;23172;53.550;9.964;2023-12-22T10:41:53;7.00;90.70
37285;DHT22;23172;53.550;9.964;2023-12-22T10:46:57;6.80;91.80
37285;DHT22;23172;53.550;9.964;2023-12-22T10:51:59;6.50;93.50
37285;DHT22;23172;53.550;9.964;2023-12-22T10:57:01;6.20;94.90
37285;DHT22;23172;53.550;9.964;2023-12-22T11:02:04;6.10;96.40
37285;DHT22;23172;53.550;9.964;2023-12-22T11:07:09;5.90;98.10
37285;DHT22;23172;53.550;9.964;2023-12-22T11:12:13;6.00;99.10
37285;DHT22;23172;53.550;9.964;2023-12-22T11:17:18;6.00;99.90
37285;DHT22;23172;53.550;9.964;2023-12-22T11:22:21;6.00;99.90
37285;DHT22;23172;53.550;9.964;2023-12-22T11:27:23;6.00;99.90
37285;DHT22;23172;53.550;9.964;2023-12-22T11:32:29;6.00;99.90
37285;DHT22;23172;53.550;9.964;2023-12-22T11:37:31;6.00;99.90
37285;DHT22;23172;53.550;9.964;2023-12-22T11:42:37;6.00;99.90
37285;DHT22;23172;53.550;9.964;2023-12-22T11:47:46;6.00;99.90
37285;DHT22;23172;53.550;9.964;2023-12-22T11:52:48;5.90;99.90
37285;DHT22;23172;53.550;9.964;2023-12-22T11:57:49;5.90;99.90
37285;DHT22;23172;53.550;9.964;2023-12-22T12:02:55;5.90;99.90
37285;DHT22;23172;53.550;9.964;2023-12-22T12:08:06;6.00;99.90
37285;DHT22;23172;53.550;9.964;2023-12-22T12:13:09;6.00;99.90
37285;DHT22;23172;53.550;9.964;2023-12-22T12:18:12;6.10;99.90
37285;DHT22;23172;53.550;9.964;2023-12-22T12:23:15;6.10;99.90
37285;DHT22;23172;53.550;9.964;2023-12-22T12:28:17;6.10;99.90
37285;DHT22;23172;53.550;9.964;2023-12-22T12:33:20;6.10;99.90
37285;DHT22;23172;53.550;9.964;2023-12-22T12:38:28;6.10;99.90
37285;DHT22;23172;53.550;9.964;2023-12-22T12:43:36;6.20;99.90
37285;DHT22;23172;53.550;9.964;2023-12-22T12:48:44;6.10;99.90
37285;DHT22;23172;53.550;9.964;2023-12-22T12:53:46;6.20;99.90
37285;DHT22;23172;53.550;9.964;2023-12-22T12:58:48;6.30;99.90
37285;DHT22;23172;53.550;9.964;2023-12-22T13:03:55;6.40;99.90
37285;DHT22;23172;53.550;9.964;2023-12-22T13:08:58;6.50;99.90
37285;DHT22;23172;53.550;9.964;2023-12-22T13:14:00;6.60;99.90
37285;DHT22;23172;53.550;9.964;2023-12-22T13:19:04;6.70;99.90
37285;DHT22;23172;53.550;9.964;2023-12-22T13:24:10;6.70;99.90
37285;DHT22;23172;53.550;9.964;2023-12-22T13:29:12;6.80;99.90
37285;DHT22;23172;53.550;9.964;2023-12-22T13:34:16;6.90;99.90
37285;DHT22;23172;53.550;9.964;2023-12-22T13:39:18;6.90;99.90
37285;DHT22;23172;53.550;9.964;2023-12-22T13:44:20;7.00;99.90
37285;DHT22;23172;53.550;9.964;2023-12-22T13:49:23;7.00;99.90
37285;DHT22;23172;53.550;9.964;2023-12-22T13:54:32;7.00;99.90
37285;DHT22;23172;53.550;9.964;2023-12-22T13:59:36;7.00;99.90
37285;DHT22;23172;53.550;9.964;2023-12-22T14:04:39;7.10;99.90
37285;DHT22;23172;53.550;9.964;2023-12-22T14:09:41;7.10;99.90
37285;DHT22;23172;53.550;9.964;2023-12-22T14:14:43;7.10;99.90
37285;DHT22;23172;53.550;9.964;2023-12-22T14:19:47;7.00;99.90
37285;DHT22;23172;53.550;9.964;2023-12-22T14:24:49;7.00;99.90
37285;DHT22;23172;53.550;9.964;2023-12-22T14:29:53;7.00;99.90
37285;DHT22;23172;53.550;9.964;2023-12-22T14:34:56;6.90;99.90
37285;DHT22;23172;53.550;9.964;2023-12-22T14:39:58;6.90;99.90
37285;DHT22;23172;53.550;9.964;2023-12-22T14:45:00;6.90;99.90
37285;DHT22;23172;53.550;9.964;2023-12-22T14:50:05;6.90;99.90
37285;DHT22;23172;53.550;9.964;2023-12-22T14:55:07;6.80;99.90
37285;DHT22;23172;53.550;9.964;2023-12-22T15:00:10;6.70;99.90
37285;DHT22;23172;53.550;9.964;2023-12-22T15:05:14;6.80;99.90
37285;DHT22;23172;53.550;9.964;2023-12-22T15:10:16;6.70;99.90
37285;DHT22;23172;53.550;9.964;2023-12-22T15:15:18;6.80;99.90
37285;DHT22;23172;53.550;9.964;2023-12-22T15:20:21;6.70;99.90
37285;DHT22;23172;53.550;9.964;2023-12-22T15:25:23;6.80;99.90
37285;DHT22;23172;53.550;9.964;2023-12-22T15:30:26;6.80;99.90
37285;DHT22;23172;53.550;9.964;2023-12-22T15:35:30;6.80;99.90
37285;DHT22;23172;53.550;9.964;2023-12-22T15:40:31;6.80;99.90
37285;DHT22;23172;53.550;9.964;2023-12-22T15:45:33;6.90;99.90
37285;DHT22;23172;53.550;9.964;2023-12-22T15:50:36;6.90;99.90
37285;DHT22;23172;53.550;9.964;2023-12-22T15:55:38;6.90;99.90
37285;DHT22;23172;53.550;9.964;2023-12-22T16:00:40;6.90;99.90
37285;DHT22;23172;53.550;9.964;2023-12-22T16:05:43;6.90;99.90
37285;DHT22;23172;53.550;9.964;2023-12-22T16:10:45;6.70;99.90
37285;DHT22;23172;53.550;9.964;2023-12-22T16:15:47;6.70;99.90
37285;DHT22;23172;53.550;9.964;2023-12-22T16:20:50;6.70;99.90
37285;DHT22;23172;53.550;9.964;2023-12-22T16:25:52;6.70;99.90
37285;DHT22;23172;53.550;9.964;2023-12-22T16:30:56;6.70;99.90
37285;DHT22;23172;53.550;9.964;2023-12-22T16:35:59;6.60;99.90
37285;DHT22;23172;53.550;9.964;2023-12-22T16:41:02;6.50;99.90
37285;DHT22;23172;53.550;9.964;2023-12-22T16:46:07;6.40;99.90
37285;DHT22;23172;53.550;9.964;2023-12-22T16:51:10;6.40;99.90
37285;DHT22;23172;53.550;9.964;2023-12-22T16:56:12;6.40;99.90
37285;DHT22;23172;53.550;9.964;2023-12-22T17:01:13;6.40;99.90
37285;DHT22;23172;53.550;9.964;2023-12-22T17:06:17;6.40;99.90
37285;DHT22;23172;53.550;9.964;2023-12-22T17:11:19;6.40;99.90
37285;DHT22;23172;53.550;9.964;2023-12-22T17:16:20;6.40;99.90
37285;DHT22;23172;53.550;9.964;2023-12-22T17:21:24;6.40;99.90
37285;DHT22;23172;53.550;9.964;2023-12-22T17:26:26;6.40;99.90
37285;DHT22;23172;53.550;9.964;2023-12-22T17:31:29;6.50;99.90
37285;DHT22;23172;53.550;9.964;2023-12-22T17:36:32;6.50;99.90
37285;DHT22;23172;53.550;9.964;2023-12-22T17:41:34;6.50;99.90
37285;DHT22;23172;53.550;9.964;2023-12-22T17:46:36;6.40;99.90
37285;DHT22;23172;53.550;9.964;2023-12-22T17:51:40;6.40;99.90
37285;DHT22;23172;53.550;9.964;2023-12-22T17:56:42;6.40;99.90
37285;DHT22;23172;53.550;9.964;2023-12-22T18:01:44;6.50;99.90
37285;DHT22;23172;53.550;9.964;2023-12-22T18:06:49;6.50;99.90
37285;DHT22;23172;53.550;9.964;2023-12-22T18:11:51;6.50;99.90
37285;DHT22;23172;53.550;9.964;2023-12-22T18:16:53;6.50;99.90
37285;DHT22;23172;53.550;9.964;2023-12-22T18:21:56;6.60;99.90
37285;DHT22;23172;53.550;9.964;2023-12-22T18:26:58;6.50;99.90
37285;DHT22;23172;53.550;9.964;2023-12-22T18:32:00;6.50;99.90
37285;DHT22;23172;53.550;9.964;2023-12-22T18:37:06;6.50;99.90
37285;DHT22;23172;53.550;9.964;2023-12-22T18:42:08;6.50;99.90
37285;DHT22;23172;53.550;9.964;2023-12-22T18:47:10;6.50;99.90
37285;DHT22;23172;53.550;9.964;2023-12-22T18:52:13;6.50;99.90
37285;DHT22;23172;53.550;9.964;2023-12-22T18:57:15;6.50;99.90
37285;DHT22;23172;53.550;9.964;2023-12-22T19:02:17;6.50;99.90
37285;DHT22;23172;53.550;9.964;2023-12-22T19:07:20;6.50;99.90
37285;DHT22;23172;53.550;9.964;2023-12-22T19:12:22;6.60;99.80
37285;DHT22;23172;53.550;9.964;2023-12-22T19:17:24;6.60;99.70
37285;DHT22;23172;53.550;9.964;2023-12-22T19:22:27;6.60;99.30
37285;DHT22;23172;53.550;9.964;2023-12-22T19:27:29;6.60;98.50
37285;DHT22;23172;53.550;9.964;2023-12-22T19:32:32;6.60;97.70
37285;DHT22;23172;53.550;9.964;2023-12-22T19:37:35;6.60;97.20
37285;DHT22;23172;53.550;9.964;2023-12-22T19:42:37;6.50;97.30
37285;DHT22;23172;53.550;9.964;2023-12-22T19:47:38;6.50;97.10
37285;DHT22;23172;53.550;9.964;2023-12-22T19:52:42;6.50;97.10
37285;DHT22;23172;53.550;9.964;2023-12-22T19:57:43;6.50;97.30
37285;DHT22;23172;53.550;9.964;2023-12-22T20:02:45;6.50;97.20
37285;DHT22;23172;53.550;9.964;2023-12-22T20:07:48;6.50;97.40
37285;DHT22;23172;53.550;9.964;2023-12-22T20:12:50;6.50;97.60
37285;DHT22;23172;53.550;9.964;2023-12-22T20:18:09;6.50;97.70
37285;DHT22;23172;53.550;9.964;2023-12-22T20:23:20;6.50;98.00
37285;DHT22;23172;53.550;9.964;2023-12-22T20:28:22;6.50;98.10
37285;DHT22;23172;53.550;9.964;2023-12-22T20:33:25;6.50;98.20
37285;DHT22;23172;53.550;9.964;2023-12-22T20:38:28;6.60;98.20
37285;DHT22;23172;53.550;9.964;2023-12-22T20:43:30;6.60;98.10
37285;DHT22;23172;53.550;9.964;2023-12-22T20:48:32;6.50;98.10
37285;DHT22;23172;53.550;9.964;2023-12-22T20:53:37;6.50;98.10
37285;DHT22;23172;53.550;9.964;2023-12-22T20:58:39;6.60;98.20
37285;DHT22;23172;53.550;9.964;2023-12-22T21:03:41;6.60;98.00
37285;DHT22;23172;53.550;9.964;2023-12-22T21:08:44;6.60;97.80
37285;DHT22;23172;53.550;9.964;2023-12-22T21:13:46;6.60;98.20
37285;DHT22;23172;53.550;9.964;2023-12-22T21:18:48;6.60;98.60
37285;DHT22;23172;53.550;9.964;2023-12-22T21:23:51;6.50;99.00
37285;DHT22;23172;53.550;9.964;2023-12-22T21:28:53;6.30;98.90
37285;DHT22;23172;53.550;9.964;2023-12-22T21:33:55;6.10;98.70
37285;DHT22;23172;53.550;9.964;2023-12-22T21:38:58;5.90;97.90
37285;DHT22;23172;53.550;9.964;2023-12-22T21:44:00;5.80;97.60
37285;DHT22;23172;53.550;9.964;2023-12-22T21:49:01;5.70;97.60
37285;DHT22;23172;53.550;9.964;2023-12-22T21:54:05;5.70;97.30
37285;DHT22;23172;53.550;9.964;2023-12-22T21:59:07;5.70;97.30
37285;DHT22;23172;53.550;9.964;2023-12-22T22:04:12;5.70;97.80
37285;DHT22;23172;53.550;9.964;2023-12-22T22:09:15;5.60;98.80
37285;DHT22;23172;53.550;9.964;2023-12-22T22:14:17;5.40;99.40
37285;DHT22;23172;53.550;9.964;2023-12-22T22:19:19;5.30;99.80
37285;DHT22;23172;53.550;9.964;2023-12-22T22:24:23;5.20;99.90
37285;DHT22;23172;53.550;9.964;2023-12-22T22:29:24;5.10;99.90
37285;DHT22;23172;53.550;9.964;2023-12-22T22:34:26;5.10;99.90
37285;DHT22;23172;53.550;9.964;2023-12-22T22:39:29;5.00;99.90
37285;DHT22;23172;53.550;9.964;2023-12-22T22:44:31;5.00;99.90
37285;DHT22;23172;53.550;9.964;2023-12-22T22:49:36;5.00;99.60
37285;DHT22;23172;53.550;9.964;2023-12-22T22:54:39;5.00;99.60
37285;DHT22;23172;53.550;9.964;2023-12-22T22:59:41;5.00;99.30
37285;DHT22;23172;53.550;9.964;2023-12-22T23:04:43;4.90;99.10
37285;DHT22;23172;53.550;9.964;2023-12-22T23:09:46;4.90;99.00
37285;DHT22;23172;53.550;9.964;2023-12-22T23:14:48;4.90;98.60
37285;DHT22;23172;53.550;9.964;2023-12-22T23:19:50;4.90;98.10
37285;DHT22;23172;53.550;9.964;2023-12-22T23:24:53;4.90;97.80
37285;DHT22;23172;53.550;9.964;2023-12-22T23:29:55;4.90;97.20
37285;DHT22;23172;53.550;9.964;2023-12-22T23:34:56;4.90;97.20
37285;DHT22;23172;53.550;9.964;2023-12-22T23:40:00;5.00;97.10
37285;DHT22;23172;53.550;9.964;2023-12-22T23:45:02;5.00;96.50
37285;DHT22;23172;53.550;9.964;2023-12-22T23:50:05;5.00;96.10
37285;DHT22;23172;53.550;9.964;2023-12-22T23:55:09;5.00;95.20
